sensor_id;sensor_type;location;lat;lon;timestamp;pressure;altitude;pressure_sealevel;temperature
65316;BMP280;51920;53.952;10.292;2023-02-22T00:00:41;101207.91;;;7.36
65316;BMP280;51920;53.952;10.292;2023-02-22T00:05:44;101211.84;;;7.39
65316;BMP280;51920;53.952;10.292;2023-02-22T00:08:16;101208.03;;;7.40
65316;BMP280;51920;53.952;10.292;2023-02-22T00:10:42;101197.59;;;7.38
65316;BMP280;51920;53.952;10.292;2023-02-22T00:13:10;101203.41;;;7.40
65316;BMP280;51920;53.952;10.292;2023-02-22T00:15:36;101200.72;;;7.40
65316;BMP280;51920;53.952;10.292;2023-02-22T00:18:02;101201.50;;;7.41
65316;BMP280;51920;53.952;10.292;2023-02-22T00:20:28;101201.50;;;7.41
65316;BMP280;51920;53.952;10.292;2023-02-22T00:22:54;101200.72;;;7.40
65316;BMP280;51920;53.952;10.292;2023-02-22T00:25:22;101194.97;;;7.42
65316;BMP280;51920;53.952;10.292;2023-02-22T00:27:49;101192.28;;;7.42
65316;BMP280;51920;53.952;10.292;2023-02-22T00:30:20;101197.25;;;7.40
65316;BMP280;51920;53.952;10.292;2023-02-22T00:32:46;101188.38;;;7.39
65316;BMP280;51920;53.952;10.292;2023-02-22T00:35:13;101188.38;;;7.39
65316;BMP280;51920;53.952;10.292;2023-02-22T00:37:39;101188.72;;;7.38
65316;BMP280;51920;53.952;10.292;2023-02-22T00:40:15;101183.31;;;7.38
65316;BMP280;51920;53.952;10.292;2023-02-22T00:42:41;101179.06;;;7.37
65316;BMP280;51920;53.952;10.292;2023-02-22T00:45:06;101179.53;;;7.39
65316;BMP280;51920;53.952;10.292;2023-02-22T00:47:34;101182.22;;;7.39
65316;BMP280;51920;53.952;10.292;2023-02-22T00:49:59;101178.38;;;7.40
65316;BMP280;51920;53.952;10.292;2023-02-22T00:52:26;101177.94;;;7.38
65316;BMP280;51920;53.952;10.292;2023-02-22T00:54:53;101187.69;;;7.42
65316;BMP280;51920;53.952;10.292;2023-02-22T00:57:19;101180.72;;;7.41
65316;BMP280;51920;53.952;10.292;2023-02-22T00:59:44;101184.53;;;7.40
65316;BMP280;51920;53.952;10.292;2023-02-22T01:02:10;101183.84;;;7.43
65316;BMP280;51920;53.952;10.292;2023-02-22T01:04:35;101181.50;;;7.42
65316;BMP280;51920;53.952;10.292;2023-02-22T01:07:01;101179.16;;;7.40
65316;BMP280;51920;53.952;10.292;2023-02-22T01:09:26;101182.22;;;7.39
65316;BMP280;51920;53.952;10.292;2023-02-22T01:11:53;101183.78;;;7.40
65316;BMP280;51920;53.952;10.292;2023-02-22T01:14:20;101174.47;;;7.37
65316;BMP280;51920;53.952;10.292;2023-02-22T01:16:49;101162.63;;;7.42
65316;BMP280;51920;53.952;10.292;2023-02-22T01:19:15;101167.16;;;7.38
65316;BMP280;51920;53.952;10.292;2023-02-22T01:21:41;101172.78;;;7.33
65316;BMP280;51920;53.952;10.292;2023-02-22T01:26:33;101171.88;;;7.28
65316;BMP280;51920;53.952;10.292;2023-02-22T01:28:59;101171.16;;;7.28
65316;BMP280;51920;53.952;10.292;2023-02-22T01:31:25;101170.34;;;7.27
65316;BMP280;51920;53.952;10.292;2023-02-22T01:33:50;101173.41;;;7.26
65316;BMP280;51920;53.952;10.292;2023-02-22T01:36:16;101171.47;;;7.26
65316;BMP280;51920;53.952;10.292;2023-02-22T01:38:44;101180.34;;;7.27
65316;BMP280;51920;53.952;10.292;2023-02-22T01:41:11;101165.31;;;7.26
65316;BMP280;51920;53.952;10.292;2023-02-22T01:43:36;101171.16;;;7.28
65316;BMP280;51920;53.952;10.292;2023-02-22T01:46:05;101168.44;;;7.28
65316;BMP280;51920;53.952;10.292;2023-02-22T01:49:04;101168.78;;;7.26
65316;BMP280;51920;53.952;10.292;2023-02-22T01:51:40;101166.50;;;7.28
65316;BMP280;51920;53.952;10.292;2023-02-22T01:54:10;101182.78;;;7.32
65316;BMP280;51920;53.952;10.292;2023-02-22T01:56:41;101168.88;;;7.30
65316;BMP280;51920;53.952;10.292;2023-02-22T01:59:10;101163.56;;;7.34
65316;BMP280;51920;53.952;10.292;2023-02-22T02:01:39;101165.84;;;7.32
65316;BMP280;51920;53.952;10.292;2023-02-22T02:04:10;101166.28;;;7.34
65316;BMP280;51920;53.952;10.292;2023-02-22T02:06:37;101164.25;;;7.31
65316;BMP280;51920;53.952;10.292;2023-02-22T02:12:18;101168.53;;;7.32
65316;BMP280;51920;53.952;10.292;2023-02-22T02:14:45;101154.63;;;7.30
65316;BMP280;51920;53.952;10.292;2023-02-22T02:17:12;101162.69;;;7.30
65316;BMP280;51920;53.952;10.292;2023-02-22T02:25:29;101159.56;;;7.27
65316;BMP280;51920;53.952;10.292;2023-02-22T02:28:34;101148.78;;;7.27
65316;BMP280;51920;53.952;10.292;2023-02-22T02:32:07;101156.88;;;7.27
65316;BMP280;51920;53.952;10.292;2023-02-22T02:34:41;101136.44;;;7.26
65316;BMP280;51920;53.952;10.292;2023-02-22T02:40:18;101127.94;;;7.24
65316;BMP280;51920;53.952;10.292;2023-02-22T02:42:52;101124.53;;;7.27
65316;BMP280;51920;53.952;10.292;2023-02-22T02:45:25;101127.47;;;7.22
65316;BMP280;51920;53.952;10.292;2023-02-22T02:47:55;101130.50;;;7.21
65316;BMP280;51920;53.952;10.292;2023-02-22T02:50:28;101133.53;;;7.19
65316;BMP280;51920;53.952;10.292;2023-02-22T02:52:58;101130.41;;;7.17
65316;BMP280;51920;53.952;10.292;2023-02-22T02:55:28;101127.00;;;7.20
65316;BMP280;51920;53.952;10.292;2023-02-22T02:57:54;101126.56;;;7.18
65316;BMP280;51920;53.952;10.292;2023-02-22T03:00:24;101125.47;;;7.19
65316;BMP280;51920;53.952;10.292;2023-02-22T03:05:40;101130.19;;;7.22
65316;BMP280;51920;53.952;10.292;2023-02-22T03:15:51;101115.91;;;7.22
65316;BMP280;51920;53.952;10.292;2023-02-22T03:18:32;101120.19;;;7.23
65316;BMP280;51920;53.952;10.292;2023-02-22T03:23:49;101110.94;;;7.24
65316;BMP280;51920;53.952;10.292;2023-02-22T03:26:20;101112.88;;;7.23
65316;BMP280;51920;53.952;10.292;2023-02-22T03:28:52;101113.53;;;7.20
65316;BMP280;51920;53.952;10.292;2023-02-22T03:31:23;101114.69;;;7.19
65316;BMP280;51920;53.952;10.292;2023-02-22T03:33:54;101105.44;;;7.20
65316;BMP280;51920;53.952;10.292;2023-02-22T03:36:24;101117.72;;;7.18
65316;BMP280;51920;53.952;10.292;2023-02-22T03:38:54;101104.72;;;7.36
65316;BMP280;51920;53.952;10.292;2023-02-22T03:41:24;101101.84;;;7.28
65316;BMP280;51920;53.952;10.292;2023-02-22T03:43:59;101107.31;;;7.32
65316;BMP280;51920;53.952;10.292;2023-02-22T03:46:27;101106.97;;;7.34
65316;BMP280;51920;53.952;10.292;2023-02-22T03:49:01;101099.91;;;7.29
65316;BMP280;51920;53.952;10.292;2023-02-22T03:51:32;101100.53;;;7.22
65316;BMP280;51920;53.952;10.292;2023-02-22T03:54:00;101100.78;;;7.17
65316;BMP280;51920;53.952;10.292;2023-02-22T03:56:38;101099.97;;;7.17
65316;BMP280;51920;53.952;10.292;2023-02-22T03:59:08;101092.50;;;7.10
65316;BMP280;51920;53.952;10.292;2023-02-22T04:01:35;101103.72;;;7.12
65316;BMP280;51920;53.952;10.292;2023-02-22T04:04:00;101099.00;;;7.09
65316;BMP280;51920;53.952;10.292;2023-02-22T04:06:27;101105.88;;;7.06
65316;BMP280;51920;53.952;10.292;2023-02-22T04:08:53;101109.00;;;7.09
65316;BMP280;51920;53.952;10.292;2023-02-22T04:11:20;101107.75;;;7.06
65316;BMP280;51920;53.952;10.292;2023-02-22T04:13:46;101103.16;;;7.06
65316;BMP280;51920;53.952;10.292;2023-02-22T04:16:11;101102.69;;;7.04
65316;BMP280;51920;53.952;10.292;2023-02-22T04:18:37;101104.38;;;7.09
65316;BMP280;51920;53.952;10.292;2023-02-22T04:21:04;101100.91;;;7.09
65316;BMP280;51920;53.952;10.292;2023-02-22T04:23:37;101103.50;;;7.05
65316;BMP280;51920;53.952;10.292;2023-02-22T04:26:03;101108.47;;;7.03
65316;BMP280;51920;53.952;10.292;2023-02-22T04:28:29;101110.78;;;7.04
65316;BMP280;51920;53.952;10.292;2023-02-22T04:31:05;101111.19;;;7.03
65316;BMP280;51920;53.952;10.292;2023-02-22T04:33:30;101109.59;;;7.02
65316;BMP280;51920;53.952;10.292;2023-02-22T04:35:56;101104.97;;;7.02
65316;BMP280;51920;53.952;10.292;2023-02-22T04:38:25;101101.50;;;7.02
65316;BMP280;51920;53.952;10.292;2023-02-22T04:40:53;101108.47;;;7.03
65316;BMP280;51920;53.952;10.292;2023-02-22T04:43:20;101106.84;;;7.14
65316;BMP280;51920;53.952;10.292;2023-02-22T04:45:46;101112.91;;;7.11
65316;BMP280;51920;53.952;10.292;2023-02-22T04:48:12;101109.78;;;7.09
65316;BMP280;51920;53.952;10.292;2023-02-22T04:50:38;101109.34;;;7.07
65316;BMP280;51920;53.952;10.292;2023-02-22T04:53:05;101112.38;;;7.05
65316;BMP280;51920;53.952;10.292;2023-02-22T04:55:30;101113.13;;;7.06
65316;BMP280;51920;53.952;10.292;2023-02-22T04:57:56;101108.91;;;7.05
65316;BMP280;51920;53.952;10.292;2023-02-22T05:00:22;101113.94;;;7.06
65316;BMP280;51920;53.952;10.292;2023-02-22T05:02:49;101104.84;;;7.11
65316;BMP280;51920;53.952;10.292;2023-02-22T05:05:17;101112.13;;;7.11
65316;BMP280;51920;53.952;10.292;2023-02-22T05:07:43;101098.66;;;7.11
65316;BMP280;51920;53.952;10.292;2023-02-22T05:10:10;101104.84;;;7.11
65316;BMP280;51920;53.952;10.292;2023-02-22T05:12:36;101106.41;;;7.12
65316;BMP280;51920;53.952;10.292;2023-02-22T05:15:05;101102.13;;;7.11
65316;BMP280;51920;53.952;10.292;2023-02-22T05:17:31;101098.66;;;7.11
65316;BMP280;51920;53.952;10.292;2023-02-22T05:19:56;101107.03;;;7.21
65316;BMP280;51920;53.952;10.292;2023-02-22T05:22:22;101099.97;;;7.17
65316;BMP280;51920;53.952;10.292;2023-02-22T05:24:49;101098.34;;;7.12
65316;BMP280;51920;53.952;10.292;2023-02-22T05:27:17;101096.31;;;7.09
65316;BMP280;51920;53.952;10.292;2023-02-22T05:29:42;101098.34;;;7.12
65316;BMP280;51920;53.952;10.292;2023-02-22T05:32:07;101092.41;;;7.06
65316;BMP280;51920;53.952;10.292;2023-02-22T05:34:33;101087.22;;;7.14
65316;BMP280;51920;53.952;10.292;2023-02-22T05:36:58;101084.38;;;7.22
65316;BMP280;51920;53.952;10.292;2023-02-22T05:39:23;101093.38;;;7.14
65316;BMP280;51920;53.952;10.292;2023-02-22T05:41:49;101086.41;;;7.13
65316;BMP280;51920;53.952;10.292;2023-02-22T05:44:14;101090.69;;;7.14
65316;BMP280;51920;53.952;10.292;2023-02-22T05:46:40;101094.50;;;7.13
65316;BMP280;51920;53.952;10.292;2023-02-22T05:49:05;101094.88;;;7.27
65316;BMP280;51920;53.952;10.292;2023-02-22T05:51:31;101098.72;;;7.26
65316;BMP280;51920;53.952;10.292;2023-02-22T05:53:57;101104.97;;;7.31
65316;BMP280;51920;53.952;10.292;2023-02-22T05:56:26;101108.72;;;7.26
65316;BMP280;51920;53.952;10.292;2023-02-22T05:58:53;101101.53;;;7.18
65316;BMP280;51920;53.952;10.292;2023-02-22T06:01:19;101101.66;;;7.21
65316;BMP280;51920;53.952;10.292;2023-02-22T06:03:48;101106.16;;;7.17
65316;BMP280;51920;53.952;10.292;2023-02-22T06:06:15;101103.91;;;7.19
65316;BMP280;51920;53.952;10.292;2023-02-22T06:08:40;101106.94;;;7.18
65316;BMP280;51920;53.952;10.292;2023-02-22T06:11:06;101099.28;;;7.20
65316;BMP280;51920;53.952;10.292;2023-02-22T06:13:31;101105.84;;;7.35
65316;BMP280;51920;53.952;10.292;2023-02-22T06:15:57;101107.22;;;7.28
65316;BMP280;51920;53.952;10.292;2023-02-22T06:18:23;101109.50;;;7.26
65316;BMP280;51920;53.952;10.292;2023-02-22T06:20:51;101102.28;;;7.31
65316;BMP280;51920;53.952;10.292;2023-02-22T06:23:16;101108.81;;;7.30
65316;BMP280;51920;53.952;10.292;2023-02-22T06:25:42;101104.63;;;7.32
65316;BMP280;51920;53.952;10.292;2023-02-22T06:28:07;101104.13;;;7.26
65316;BMP280;51920;53.952;10.292;2023-02-22T06:30:33;101108.25;;;7.24
65316;BMP280;51920;53.952;10.292;2023-02-22T06:32:58;101104.53;;;7.28
65316;BMP280;51920;53.952;10.292;2023-02-22T06:35:24;101100.13;;;7.36
65316;BMP280;51920;53.952;10.292;2023-02-22T06:37:49;101099.06;;;7.25
65316;BMP280;51920;53.952;10.292;2023-02-22T06:40:15;101106.09;;;7.30
65316;BMP280;51920;53.952;10.292;2023-02-22T06:42:40;101105.66;;;7.27
65316;BMP280;51920;53.952;10.292;2023-02-22T06:45:06;101097.75;;;7.35
65316;BMP280;51920;53.952;10.292;2023-02-22T06:47:32;101099.56;;;7.31
65316;BMP280;51920;53.952;10.292;2023-02-22T06:50:01;101099.25;;;7.32
65316;BMP280;51920;53.952;10.292;2023-02-22T06:52:27;101099.50;;;7.27
65316;BMP280;51920;53.952;10.292;2023-02-22T06:54:52;101105.31;;;7.29
65316;BMP280;51920;53.952;10.292;2023-02-22T06:57:17;101095.31;;;7.30
65316;BMP280;51920;53.952;10.292;2023-02-22T06:59:43;101105.84;;;7.35
65316;BMP280;51920;53.952;10.292;2023-02-22T07:02:12;101094.38;;;7.38
65316;BMP280;51920;53.952;10.292;2023-02-22T07:04:38;101097.09;;;7.54
65316;BMP280;51920;53.952;10.292;2023-02-22T07:07:04;101099.78;;;7.38
65316;BMP280;51920;53.952;10.292;2023-02-22T07:09:29;101096.31;;;7.53
65316;BMP280;51920;53.952;10.292;2023-02-22T07:11:55;101103.25;;;7.54
65316;BMP280;51920;53.952;10.292;2023-02-22T07:14:20;101097.63;;;7.59
65316;BMP280;51920;53.952;10.292;2023-02-22T07:16:46;101102.50;;;7.54
65316;BMP280;51920;53.952;10.292;2023-02-22T07:19:11;101106.34;;;7.68
65316;BMP280;51920;53.952;10.292;2023-02-22T07:21:37;101102.69;;;7.61
65316;BMP280;51920;53.952;10.292;2023-02-22T07:24:02;101104.78;;;7.52
65316;BMP280;51920;53.952;10.292;2023-02-22T07:26:28;101116.03;;;7.41
65316;BMP280;51920;53.952;10.292;2023-02-22T07:28:53;101101.19;;;7.47
65316;BMP280;51920;53.952;10.292;2023-02-22T07:31:19;101101.13;;;7.60
65316;BMP280;51920;53.952;10.292;2023-02-22T07:33:47;101113.13;;;7.62
65316;BMP280;51920;53.952;10.292;2023-02-22T07:36:13;101106.63;;;7.63
65316;BMP280;51920;53.952;10.292;2023-02-22T07:38:43;101113.03;;;7.59
65316;BMP280;51920;53.952;10.292;2023-02-22T07:41:09;101106.25;;;7.49
65316;BMP280;51920;53.952;10.292;2023-02-22T07:43:35;101113.53;;;7.64
65316;BMP280;51920;53.952;10.292;2023-02-22T07:46:02;101108.06;;;7.61
65316;BMP280;51920;53.952;10.292;2023-02-22T07:48:29;101111.44;;;7.58
65316;BMP280;51920;53.952;10.292;2023-02-22T07:50:55;101110.06;;;7.48
65316;BMP280;51920;53.952;10.292;2023-02-22T07:53:24;101114.16;;;7.58
65316;BMP280;51920;53.952;10.292;2023-02-22T07:55:50;101110.06;;;7.48
65316;BMP280;51920;53.952;10.292;2023-02-22T07:58:18;101118.47;;;7.75
65316;BMP280;51920;53.952;10.292;2023-02-22T08:00:43;101115.38;;;7.60
65316;BMP280;51920;53.952;10.292;2023-02-22T08:03:11;101108.00;;;7.73
65316;BMP280;51920;53.952;10.292;2023-02-22T08:05:38;101109.84;;;7.85
65316;BMP280;51920;53.952;10.292;2023-02-22T08:08:05;101110.38;;;7.75
65316;BMP280;51920;53.952;10.292;2023-02-22T08:10:32;101109.50;;;7.71
65316;BMP280;51920;53.952;10.292;2023-02-22T08:12:58;101109.94;;;7.73
65316;BMP280;51920;53.952;10.292;2023-02-22T08:15:32;101106.97;;;7.78
65316;BMP280;51920;53.952;10.292;2023-02-22T08:18:00;101106.53;;;7.76
65316;BMP280;51920;53.952;10.292;2023-02-22T08:20:27;101107.16;;;7.85
65316;BMP280;51920;53.952;10.292;2023-02-22T08:22:53;101105.75;;;7.91
65316;BMP280;51920;53.952;10.292;2023-02-22T08:25:21;101099.75;;;7.82
65316;BMP280;51920;53.952;10.292;2023-02-22T08:27:50;101092.53;;;7.86
65316;BMP280;51920;53.952;10.292;2023-02-22T08:30:22;101096.28;;;7.81
65316;BMP280;51920;53.952;10.292;2023-02-22T08:32:48;101089.41;;;7.84
65316;BMP280;51920;53.952;10.292;2023-02-22T08:35:15;101091.38;;;7.87
65316;BMP280;51920;53.952;10.292;2023-02-22T08:37:46;101088.00;;;8.06
65316;BMP280;51920;53.952;10.292;2023-02-22T08:40:13;101082.59;;;8.06
65316;BMP280;51920;53.952;10.292;2023-02-22T08:42:38;101085.06;;;7.95
65316;BMP280;51920;53.952;10.292;2023-02-22T08:45:04;101079.09;;;8.05
65316;BMP280;51920;53.952;10.292;2023-02-22T08:47:30;101080.41;;;8.12
65316;BMP280;51920;53.952;10.292;2023-02-22T08:49:55;101087.34;;;8.13
65316;BMP280;51920;53.952;10.292;2023-02-22T08:52:20;101076.47;;;8.25
65316;BMP280;51920;53.952;10.292;2023-02-22T08:54:46;101073.47;;;8.30
65316;BMP280;51920;53.952;10.292;2023-02-22T08:57:12;101079.13;;;8.41
65316;BMP280;51920;53.952;10.292;2023-02-22T08:59:38;101079.91;;;8.41
65316;BMP280;51920;53.952;10.292;2023-02-22T09:02:05;101073.53;;;8.49
65316;BMP280;51920;53.952;10.292;2023-02-22T09:04:30;101067.84;;;8.55
65316;BMP280;51920;53.952;10.292;2023-02-22T09:06:55;101075.09;;;8.51
65316;BMP280;51920;53.952;10.292;2023-02-22T09:09:21;101069.94;;;8.61
65316;BMP280;51920;53.952;10.292;2023-02-22T09:11:47;101069.09;;;8.77
65316;BMP280;51920;53.952;10.292;2023-02-22T09:14:13;101072.63;;;8.81
65316;BMP280;51920;53.952;10.292;2023-02-22T09:16:39;101068.00;;;8.81
65316;BMP280;51920;53.952;10.292;2023-02-22T09:19:04;101060.31;;;8.83
65316;BMP280;51920;53.952;10.292;2023-02-22T09:21:30;101051.59;;;8.90
65316;BMP280;51920;53.952;10.292;2023-02-22T09:23:56;101056.44;;;8.81
65316;BMP280;51920;53.952;10.292;2023-02-22T09:26:21;101060.47;;;8.90
65316;BMP280;51920;53.952;10.292;2023-02-22T09:28:52;101057.88;;;8.98
65316;BMP280;51920;53.952;10.292;2023-02-22T09:31:17;101060.25;;;8.99
65316;BMP280;51920;53.952;10.292;2023-02-22T09:33:45;101054.88;;;9.03
65316;BMP280;51920;53.952;10.292;2023-02-22T09:36:10;101056.09;;;9.05
65316;BMP280;51920;53.952;10.292;2023-02-22T09:38:36;101045.81;;;9.11
65316;BMP280;51920;53.952;10.292;2023-02-22T09:47:01;101050.75;;;9.28
65316;BMP280;51920;53.952;10.292;2023-02-22T09:49:32;101056.25;;;9.36
65316;BMP280;51920;53.952;10.292;2023-02-22T09:52:21;101060.09;;;9.35
65316;BMP280;51920;53.952;10.292;2023-02-22T09:54:58;101051.75;;;9.20
65316;BMP280;51920;53.952;10.292;2023-02-22T09:57:39;101053.03;;;9.26
65316;BMP280;51920;53.952;10.292;2023-02-22T10:00:17;101057.63;;;9.26
65316;BMP280;51920;53.952;10.292;2023-02-22T10:03:10;101049.63;;;9.33
65316;BMP280;51920;53.952;10.292;2023-02-22T10:05:41;101039.16;;;9.31
65316;BMP280;51920;53.952;10.292;2023-02-22T10:08:13;101040.03;;;9.36
65316;BMP280;51920;53.952;10.292;2023-02-22T10:10:43;101039.69;;;9.37
65316;BMP280;51920;53.952;10.292;2023-02-22T10:16:18;101036.22;;;9.40
65316;BMP280;51920;53.952;10.292;2023-02-22T10:19:02;101038.88;;;9.37
65316;BMP280;51920;53.952;10.292;2023-02-22T10:26:43;101029.69;;;9.64
65316;BMP280;51920;53.952;10.292;2023-02-22T10:32:02;101031.25;;;9.65
65316;BMP280;51920;53.952;10.292;2023-02-22T10:34:49;101033.16;;;9.65
65316;BMP280;51920;53.952;10.292;2023-02-22T10:37:23;101031.00;;;9.78
65316;BMP280;51920;53.952;10.292;2023-02-22T10:39:52;101027.50;;;9.73
65316;BMP280;51920;53.952;10.292;2023-02-22T10:42:22;101031.16;;;9.85
65316;BMP280;51920;53.952;10.292;2023-02-22T10:44:49;101021.50;;;9.87
65316;BMP280;51920;53.952;10.292;2023-02-22T10:47:14;101016.94;;;9.91
65316;BMP280;51920;53.952;10.292;2023-02-22T10:49:45;101015.75;;;9.89
65316;BMP280;51920;53.952;10.292;2023-02-22T10:52:26;101021.13;;;9.85
65316;BMP280;51920;53.952;10.292;2023-02-22T10:54:55;101018.19;;;9.98
65316;BMP280;51920;53.952;10.292;2023-02-22T10:57:24;101009.66;;;9.96
65316;BMP280;51920;53.952;10.292;2023-02-22T10:59:50;101009.34;;;10.04
65316;BMP280;51920;53.952;10.292;2023-02-22T11:02:24;101013.28;;;10.07
65316;BMP280;51920;53.952;10.292;2023-02-22T11:04:53;101006.63;;;10.01
65316;BMP280;51920;53.952;10.292;2023-02-22T11:07:34;101001.72;;;10.10
65316;BMP280;51920;53.952;10.292;2023-02-22T11:10:02;101007.09;;;10.06
65316;BMP280;51920;53.952;10.292;2023-02-22T11:12:36;100994.28;;;10.03
65316;BMP280;51920;53.952;10.292;2023-02-22T11:17:52;101000.28;;;10.20
65316;BMP280;51920;53.952;10.292;2023-02-22T11:20:24;100991.75;;;10.18
65316;BMP280;51920;53.952;10.292;2023-02-22T11:22:55;100991.13;;;10.28
65316;BMP280;51920;53.952;10.292;2023-02-22T11:25:27;100981.09;;;10.32
65316;BMP280;51920;53.952;10.292;2023-02-22T11:27:54;100988.91;;;10.37
65316;BMP280;51920;53.952;10.292;2023-02-22T11:37:53;100963.38;;;10.38
65316;BMP280;51920;53.952;10.292;2023-02-22T11:40:33;100969.13;;;10.33
65316;BMP280;51920;53.952;10.292;2023-02-22T11:43:14;100971.91;;;10.40
65316;BMP280;51920;53.952;10.292;2023-02-22T11:45:56;100961.44;;;10.39
65316;BMP280;51920;53.952;10.292;2023-02-22T11:48:25;100957.25;;;10.45
65316;BMP280;51920;53.952;10.292;2023-02-22T11:51:18;100952.72;;;10.52
65316;BMP280;51920;53.952;10.292;2023-02-22T12:10:25;100939.66;;;10.62
65316;BMP280;51920;53.952;10.292;2023-02-22T12:21:53;100932.28;;;10.62
65316;BMP280;51920;53.952;10.292;2023-02-22T12:24:24;100930.00;;;10.68
65316;BMP280;51920;53.952;10.292;2023-02-22T12:27:12;100938.94;;;10.72
65316;BMP280;51920;53.952;10.292;2023-02-22T12:29:48;100930.06;;;10.75
65316;BMP280;51920;53.952;10.292;2023-02-22T12:32:35;100929.66;;;10.73
65316;BMP280;51920;53.952;10.292;2023-02-22T12:37:43;100925.81;;;10.74
65316;BMP280;51920;53.952;10.292;2023-02-22T12:43:15;100928.97;;;10.83
65316;BMP280;51920;53.952;10.292;2023-02-22T12:46:01;100913.47;;;10.80
65316;BMP280;51920;53.952;10.292;2023-02-22T12:48:41;100910.75;;;10.80
65316;BMP280;51920;53.952;10.292;2023-02-22T12:53:43;100912.00;;;10.86
65316;BMP280;51920;53.952;10.292;2023-02-22T12:56:30;100906.16;;;10.84
65316;BMP280;51920;53.952;10.292;2023-02-22T12:59:18;100893.84;;;10.94
65316;BMP280;51920;53.952;10.292;2023-02-22T13:01:50;100894.97;;;10.93
65316;BMP280;51920;53.952;10.292;2023-02-22T13:04:16;100894.25;;;10.99
65316;BMP280;51920;53.952;10.292;2023-02-22T13:06:56;100887.34;;;11.02
65316;BMP280;51920;53.952;10.292;2023-02-22T13:09:52;100889.69;;;11.04
65316;BMP280;51920;53.952;10.292;2023-02-22T13:12:33;100887.00;;;11.11
65316;BMP280;51920;53.952;10.292;2023-02-22T13:15:14;100891.97;;;11.02
65316;BMP280;51920;53.952;10.292;2023-02-22T13:23:21;100891.59;;;11.07
65316;BMP280;51920;53.952;10.292;2023-02-22T13:25:59;100888.88;;;11.03
65316;BMP280;51920;53.952;10.292;2023-02-22T13:51:01;100872.97;;;11.02
65316;BMP280;51920;53.952;10.292;2023-02-22T13:53:35;100870.78;;;11.18
65316;BMP280;51920;53.952;10.292;2023-02-22T13:56:03;100878.06;;;11.10
65316;BMP280;51920;53.952;10.292;2023-02-22T13:58:28;100878.44;;;11.09
65316;BMP280;51920;53.952;10.292;2023-02-22T14:00:56;100876.53;;;11.13
65316;BMP280;51920;53.952;10.292;2023-02-22T14:03:37;100873.47;;;11.11
65316;BMP280;51920;53.952;10.292;2023-02-22T14:06:38;100868.03;;;11.14
65316;BMP280;51920;53.952;10.292;2023-02-22T14:09:14;100869.53;;;11.08
65316;BMP280;51920;53.952;10.292;2023-02-22T14:11:45;100863.78;;;11.17
65316;BMP280;51920;53.952;10.292;2023-02-22T14:14:13;100864.88;;;11.09
65316;BMP280;51920;53.952;10.292;2023-02-22T14:16:39;100867.19;;;11.07
65316;BMP280;51920;53.952;10.292;2023-02-22T14:21:33;100860.69;;;11.11
65316;BMP280;51920;53.952;10.292;2023-02-22T14:24:14;100857.97;;;11.15
65316;BMP280;51920;53.952;10.292;2023-02-22T14:27:04;100856.41;;;11.10
65316;BMP280;51920;53.952;10.292;2023-02-22T14:29:29;100858.00;;;11.22
65316;BMP280;51920;53.952;10.292;2023-02-22T14:32:03;100850.25;;;11.17
65316;BMP280;51920;53.952;10.292;2023-02-22T14:34:47;100848.59;;;11.05
65316;BMP280;51920;53.952;10.292;2023-02-22T14:37:32;100850.25;;;11.17
65316;BMP280;51920;53.952;10.292;2023-02-22T14:43:00;100836.97;;;11.01
65316;BMP280;51920;53.952;10.292;2023-02-22T14:45:28;100839.28;;;10.95
65316;BMP280;51920;53.952;10.292;2023-02-22T14:48:11;100835.03;;;11.02
65316;BMP280;51920;53.952;10.292;2023-02-22T14:55:43;100828.81;;;10.97
65316;BMP280;51920;53.952;10.292;2023-02-22T14:58:21;100824.16;;;10.94
65316;BMP280;51920;53.952;10.292;2023-02-22T15:00:50;100829.09;;;10.78
65316;BMP280;51920;53.952;10.292;2023-02-22T15:03:26;100829.78;;;10.71
65316;BMP280;51920;53.952;10.292;2023-02-22T15:06:05;100825.88;;;10.65
65316;BMP280;51920;53.952;10.292;2023-02-22T15:08:32;100818.13;;;10.60
65316;BMP280;51920;53.952;10.292;2023-02-22T15:10:59;100811.16;;;10.66
65316;BMP280;51920;53.952;10.292;2023-02-22T15:13:28;100817.03;;;10.72
65316;BMP280;51920;53.952;10.292;2023-02-22T15:16:02;100819.28;;;10.63
65316;BMP280;51920;53.952;10.292;2023-02-22T15:18:39;100817.78;;;10.69
65316;BMP280;51920;53.952;10.292;2023-02-22T15:21:18;100820.44;;;10.62
65316;BMP280;51920;53.952;10.292;2023-02-22T15:24:00;100815.41;;;10.64
65316;BMP280;51920;53.952;10.292;2023-02-22T15:26:35;100822.44;;;10.68
65316;BMP280;51920;53.952;10.292;2023-02-22T15:29:14;100822.00;;;10.66
65316;BMP280;51920;53.952;10.292;2023-02-22T15:31:41;100818.44;;;10.51
65316;BMP280;51920;53.952;10.292;2023-02-22T15:36:40;100823.47;;;10.53
65316;BMP280;51920;53.952;10.292;2023-02-22T15:39:21;100821.13;;;10.51
65316;BMP280;51920;53.952;10.292;2023-02-22T15:42:12;100818.84;;;10.57
65316;BMP280;51920;53.952;10.292;2023-02-22T15:44:49;100813.00;;;10.51
65316;BMP280;51920;53.952;10.292;2023-02-22T15:47:22;100815.63;;;10.41
65316;BMP280;51920;53.952;10.292;2023-02-22T15:50:18;100808.28;;;10.41
65316;BMP280;51920;53.952;10.292;2023-02-22T15:55:37;100803.50;;;10.27
65316;BMP280;51920;53.952;10.292;2023-02-22T15:58:18;100807.31;;;10.19
65316;BMP280;51920;53.952;10.292;2023-02-22T16:01:13;100806.63;;;10.26
65316;BMP280;51920;53.952;10.292;2023-02-22T16:03:47;100810.00;;;10.15
65316;BMP280;51920;53.952;10.292;2023-02-22T16:08:54;100806.19;;;10.24
65316;BMP280;51920;53.952;10.292;2023-02-22T16:11:22;100803.09;;;10.25
65316;BMP280;51920;53.952;10.292;2023-02-22T16:13:56;100801.06;;;10.11
65316;BMP280;51920;53.952;10.292;2023-02-22T16:16:28;100794.22;;;10.25
65316;BMP280;51920;53.952;10.292;2023-02-22T16:22:30;100793.84;;;10.26
65316;BMP280;51920;53.952;10.292;2023-02-22T16:25:22;100798.75;;;10.13
65316;BMP280;51920;53.952;10.292;2023-02-22T16:27:56;100797.63;;;10.18
65316;BMP280;51920;53.952;10.292;2023-02-22T16:30:42;100798.38;;;10.11
65316;BMP280;51920;53.952;10.292;2023-02-22T16:33:09;100806.06;;;10.09